Terminal Aerodrome Forecast
Issued by NWS Charleston, WV

Current Version | Previous Version | Graphics & Text | Print | Product List | Glossary On
Versions: 1 2 3 4 5 6 7 8 9 10 11 12 13 14 15 16 17 18 19 20
000
FTUS41 KRLX 181400 AAA
TAFCRW
TAF AMD
KCRW 181425Z 1814/1912 28010G20KT P6SM BKN040
      TEMPO 1815/1816 3SM -SHSN BKN025
     FM181800 26010G18KT P6SM SCT045
     FM182200 25008KT P6SM SKC
     FM190500 26004KT P6SM SKC
     FM191000 22004KT P6SM SKC=

USA.gov is the U.S. government's official web portal to all federal, state and local government web resources and services.